sensor_id;sensor_type;location;lat;lon;timestamp;P1;durP1;ratioP1;P2;durP2;ratioP2
20727;SDS011;10525;50.154;8.198;2023-02-22T00:01:19;31.63;;;10.70;;
20727;SDS011;10525;50.154;8.198;2023-02-22T00:03:59;30.40;;;10.57;;
20727;SDS011;10525;50.154;8.198;2023-02-22T00:06:26;29.20;;;10.20;;
20727;SDS011;10525;50.154;8.198;2023-02-22T00:08:53;26.17;;;9.50;;
20727;SDS011;10525;50.154;8.198;2023-02-22T00:11:21;30.03;;;9.40;;
20727;SDS011;10525;50.154;8.198;2023-02-22T00:13:48;24.07;;;8.97;;
20727;SDS011;10525;50.154;8.198;2023-02-22T00:16:16;26.23;;;10.47;;
20727;SDS011;10525;50.154;8.198;2023-02-22T00:18:45;32.17;;;11.30;;
20727;SDS011;10525;50.154;8.198;2023-02-22T00:21:12;31.60;;;11.20;;
20727;SDS011;10525;50.154;8.198;2023-02-22T00:23:41;34.70;;;11.60;;
20727;SDS011;10525;50.154;8.198;2023-02-22T00:26:10;33.87;;;11.47;;
20727;SDS011;10525;50.154;8.198;2023-02-22T00:28:43;37.50;;;13.83;;
20727;SDS011;10525;50.154;8.198;2023-02-22T00:31:10;53.60;;;14.73;;
20727;SDS011;10525;50.154;8.198;2023-02-22T00:33:39;39.37;;;14.73;;
20727;SDS011;10525;50.154;8.198;2023-02-22T00:36:06;53.33;;;16.30;;
20727;SDS011;10525;50.154;8.198;2023-02-22T00:38:34;44.93;;;15.27;;
20727;SDS011;10525;50.154;8.198;2023-02-22T00:41:01;55.17;;;16.17;;
20727;SDS011;10525;50.154;8.198;2023-02-22T00:43:28;50.40;;;16.63;;
20727;SDS011;10525;50.154;8.198;2023-02-22T00:45:56;55.17;;;16.73;;
20727;SDS011;10525;50.154;8.198;2023-02-22T00:48:22;49.67;;;16.80;;
20727;SDS011;10525;50.154;8.198;2023-02-22T00:50:49;54.50;;;16.57;;
20727;SDS011;10525;50.154;8.198;2023-02-22T00:53:19;57.17;;;16.60;;
20727;SDS011;10525;50.154;8.198;2023-02-22T00:55:46;55.13;;;17.80;;
20727;SDS011;10525;50.154;8.198;2023-02-22T00:58:13;62.30;;;18.10;;
20727;SDS011;10525;50.154;8.198;2023-02-22T01:00:40;56.03;;;15.97;;
20727;SDS011;10525;50.154;8.198;2023-02-22T01:03:11;61.40;;;16.77;;
20727;SDS011;10525;50.154;8.198;2023-02-22T01:05:41;52.33;;;16.77;;
20727;SDS011;10525;50.154;8.198;2023-02-22T01:08:09;46.83;;;14.97;;
20727;SDS011;10525;50.154;8.198;2023-02-22T01:10:38;47.80;;;14.57;;
20727;SDS011;10525;50.154;8.198;2023-02-22T01:13:06;49.20;;;15.10;;
20727;SDS011;10525;50.154;8.198;2023-02-22T01:15:36;48.83;;;16.33;;
20727;SDS011;10525;50.154;8.198;2023-02-22T01:18:04;37.60;;;13.73;;
20727;SDS011;10525;50.154;8.198;2023-02-22T01:20:32;54.77;;;17.00;;
20727;SDS011;10525;50.154;8.198;2023-02-22T01:23:00;51.47;;;15.13;;
20727;SDS011;10525;50.154;8.198;2023-02-22T01:25:30;48.23;;;16.50;;
20727;SDS011;10525;50.154;8.198;2023-02-22T01:27:58;56.80;;;18.10;;
20727;SDS011;10525;50.154;8.198;2023-02-22T01:30:26;53.27;;;17.93;;
20727;SDS011;10525;50.154;8.198;2023-02-22T01:32:56;55.63;;;18.03;;
20727;SDS011;10525;50.154;8.198;2023-02-22T01:35:25;60.53;;;17.37;;
20727;SDS011;10525;50.154;8.198;2023-02-22T01:37:54;45.63;;;17.07;;
20727;SDS011;10525;50.154;8.198;2023-02-22T01:40:23;55.43;;;17.77;;
20727;SDS011;10525;50.154;8.198;2023-02-22T01:42:53;45.07;;;16.40;;
20727;SDS011;10525;50.154;8.198;2023-02-22T01:45:37;61.17;;;18.47;;
20727;SDS011;10525;50.154;8.198;2023-02-22T01:48:14;52.97;;;17.37;;
20727;SDS011;10525;50.154;8.198;2023-02-22T01:50:46;53.47;;;18.57;;
20727;SDS011;10525;50.154;8.198;2023-02-22T01:53:21;68.30;;;19.25;;
20727;SDS011;10525;50.154;8.198;2023-02-22T01:55:51;61.73;;;18.93;;
20727;SDS011;10525;50.154;8.198;2023-02-22T01:58:20;63.00;;;20.77;;
20727;SDS011;10525;50.154;8.198;2023-02-22T02:00:50;67.07;;;21.43;;
20727;SDS011;10525;50.154;8.198;2023-02-22T02:03:18;69.20;;;21.10;;
20727;SDS011;10525;50.154;8.198;2023-02-22T02:05:47;76.37;;;21.93;;
20727;SDS011;10525;50.154;8.198;2023-02-22T02:08:20;69.23;;;20.67;;
20727;SDS011;10525;50.154;8.198;2023-02-22T02:10:54;60.10;;;18.43;;
20727;SDS011;10525;50.154;8.198;2023-02-22T02:13:23;63.13;;;19.10;;
20727;SDS011;10525;50.154;8.198;2023-02-22T02:15:52;71.17;;;21.10;;
20727;SDS011;10525;50.154;8.198;2023-02-22T02:18:20;66.20;;;21.77;;
20727;SDS011;10525;50.154;8.198;2023-02-22T02:20:50;77.03;;;21.30;;
20727;SDS011;10525;50.154;8.198;2023-02-22T02:23:36;63.87;;;22.20;;
20727;SDS011;10525;50.154;8.198;2023-02-22T02:26:21;74.50;;;21.97;;
20727;SDS011;10525;50.154;8.198;2023-02-22T02:29:18;63.07;;;22.37;;
20727;SDS011;10525;50.154;8.198;2023-02-22T02:32:19;81.33;;;23.77;;
20727;SDS011;10525;50.154;8.198;2023-02-22T02:34:55;70.60;;;20.60;;
20727;SDS011;10525;50.154;8.198;2023-02-22T02:37:28;72.80;;;21.43;;
20727;SDS011;10525;50.154;8.198;2023-02-22T02:40:01;79.73;;;22.30;;
20727;SDS011;10525;50.154;8.198;2023-02-22T02:42:37;75.63;;;21.93;;
20727;SDS011;10525;50.154;8.198;2023-02-22T02:45:08;66.90;;;20.63;;
20727;SDS011;10525;50.154;8.198;2023-02-22T02:47:43;71.60;;;20.03;;
20727;SDS011;10525;50.154;8.198;2023-02-22T02:50:14;65.57;;;19.63;;
20727;SDS011;10525;50.154;8.198;2023-02-22T02:52:44;60.90;;;21.20;;
20727;SDS011;10525;50.154;8.198;2023-02-22T02:55:13;70.07;;;20.87;;
20727;SDS011;10525;50.154;8.198;2023-02-22T02:57:41;57.73;;;20.53;;
20727;SDS011;10525;50.154;8.198;2023-02-22T03:00:09;70.00;;;22.30;;
20727;SDS011;10525;50.154;8.198;2023-02-22T03:02:50;71.70;;;23.40;;
20727;SDS011;10525;50.154;8.198;2023-02-22T03:05:32;75.10;;;21.83;;
20727;SDS011;10525;50.154;8.198;2023-02-22T03:08:11;67.40;;;22.40;;
20727;SDS011;10525;50.154;8.198;2023-02-22T03:10:45;73.23;;;21.67;;
20727;SDS011;10525;50.154;8.198;2023-02-22T03:13:18;78.07;;;23.27;;
20727;SDS011;10525;50.154;8.198;2023-02-22T03:15:54;77.57;;;24.07;;
20727;SDS011;10525;50.154;8.198;2023-02-22T03:18:35;70.33;;;21.37;;
20727;SDS011;10525;50.154;8.198;2023-02-22T03:21:08;65.73;;;21.63;;
20727;SDS011;10525;50.154;8.198;2023-02-22T03:23:44;68.83;;;21.57;;
20727;SDS011;10525;50.154;8.198;2023-02-22T03:26:19;69.70;;;22.87;;
20727;SDS011;10525;50.154;8.198;2023-02-22T03:28:48;67.47;;;22.87;;
20727;SDS011;10525;50.154;8.198;2023-02-22T03:31:21;70.33;;;22.23;;
20727;SDS011;10525;50.154;8.198;2023-02-22T03:33:52;61.93;;;21.73;;
20727;SDS011;10525;50.154;8.198;2023-02-22T03:36:23;65.67;;;22.90;;
20727;SDS011;10525;50.154;8.198;2023-02-22T03:38:54;69.20;;;23.23;;
20727;SDS011;10525;50.154;8.198;2023-02-22T03:41:24;69.97;;;22.13;;
20727;SDS011;10525;50.154;8.198;2023-02-22T03:43:52;70.20;;;22.37;;
20727;SDS011;10525;50.154;8.198;2023-02-22T03:46:25;68.80;;;23.70;;
20727;SDS011;10525;50.154;8.198;2023-02-22T03:48:57;75.70;;;24.63;;
20727;SDS011;10525;50.154;8.198;2023-02-22T03:51:27;66.20;;;23.27;;
20727;SDS011;10525;50.154;8.198;2023-02-22T03:53:55;70.77;;;24.23;;
20727;SDS011;10525;50.154;8.198;2023-02-22T03:56:24;88.97;;;27.23;;
20727;SDS011;10525;50.154;8.198;2023-02-22T03:58:59;72.33;;;23.20;;
20727;SDS011;10525;50.154;8.198;2023-02-22T04:01:26;69.23;;;23.03;;
20727;SDS011;10525;50.154;8.198;2023-02-22T04:03:53;71.07;;;24.07;;
20727;SDS011;10525;50.154;8.198;2023-02-22T04:06:21;75.10;;;24.93;;
20727;SDS011;10525;50.154;8.198;2023-02-22T04:08:48;75.57;;;24.67;;
20727;SDS011;10525;50.154;8.198;2023-02-22T04:11:14;77.27;;;26.10;;
20727;SDS011;10525;50.154;8.198;2023-02-22T04:13:41;65.77;;;24.10;;
20727;SDS011;10525;50.154;8.198;2023-02-22T04:16:08;74.87;;;23.57;;
20727;SDS011;10525;50.154;8.198;2023-02-22T04:18:34;82.60;;;25.43;;
20727;SDS011;10525;50.154;8.198;2023-02-22T04:21:01;71.03;;;23.77;;
20727;SDS011;10525;50.154;8.198;2023-02-22T04:23:29;73.40;;;23.73;;
20727;SDS011;10525;50.154;8.198;2023-02-22T04:25:56;82.47;;;25.80;;
20727;SDS011;10525;50.154;8.198;2023-02-22T04:28:23;92.03;;;25.27;;
20727;SDS011;10525;50.154;8.198;2023-02-22T04:30:49;83.80;;;26.57;;
20727;SDS011;10525;50.154;8.198;2023-02-22T04:33:16;86.10;;;26.67;;
20727;SDS011;10525;50.154;8.198;2023-02-22T04:35:43;87.83;;;24.50;;
20727;SDS011;10525;50.154;8.198;2023-02-22T04:38:09;72.43;;;23.43;;
20727;SDS011;10525;50.154;8.198;2023-02-22T04:40:38;78.33;;;23.93;;
20727;SDS011;10525;50.154;8.198;2023-02-22T04:43:04;73.83;;;22.80;;
20727;SDS011;10525;50.154;8.198;2023-02-22T04:45:31;78.23;;;22.63;;
20727;SDS011;10525;50.154;8.198;2023-02-22T04:47:58;65.13;;;20.80;;
20727;SDS011;10525;50.154;8.198;2023-02-22T04:50:24;67.47;;;20.97;;
20727;SDS011;10525;50.154;8.198;2023-02-22T04:52:52;68.47;;;20.47;;
20727;SDS011;10525;50.154;8.198;2023-02-22T04:55:18;69.03;;;21.13;;
20727;SDS011;10525;50.154;8.198;2023-02-22T04:57:47;63.67;;;18.83;;
20727;SDS011;10525;50.154;8.198;2023-02-22T05:00:15;62.87;;;19.00;;
20727;SDS011;10525;50.154;8.198;2023-02-22T05:02:42;58.20;;;18.70;;
20727;SDS011;10525;50.154;8.198;2023-02-22T05:05:10;54.80;;;19.37;;
20727;SDS011;10525;50.154;8.198;2023-02-22T05:07:38;59.87;;;18.23;;
20727;SDS011;10525;50.154;8.198;2023-02-22T05:10:05;61.67;;;19.23;;
20727;SDS011;10525;50.154;8.198;2023-02-22T05:12:32;55.37;;;17.63;;
20727;SDS011;10525;50.154;8.198;2023-02-22T05:15:05;57.33;;;17.17;;
20727;SDS011;10525;50.154;8.198;2023-02-22T05:17:33;51.33;;;16.73;;
20727;SDS011;10525;50.154;8.198;2023-02-22T05:19:59;53.83;;;18.53;;
20727;SDS011;10525;50.154;8.198;2023-02-22T05:22:27;65.47;;;20.13;;
20727;SDS011;10525;50.154;8.198;2023-02-22T05:24:53;50.50;;;16.50;;
20727;SDS011;10525;50.154;8.198;2023-02-22T05:27:20;69.43;;;18.47;;
20727;SDS011;10525;50.154;8.198;2023-02-22T05:29:47;65.47;;;18.00;;
20727;SDS011;10525;50.154;8.198;2023-02-22T05:32:15;47.47;;;17.20;;
20727;SDS011;10525;50.154;8.198;2023-02-22T05:34:42;47.30;;;16.20;;
20727;SDS011;10525;50.154;8.198;2023-02-22T05:37:09;53.27;;;16.27;;
20727;SDS011;10525;50.154;8.198;2023-02-22T05:39:36;53.50;;;16.67;;
20727;SDS011;10525;50.154;8.198;2023-02-22T05:42:03;56.07;;;14.70;;
20727;SDS011;10525;50.154;8.198;2023-02-22T05:44:29;43.10;;;14.93;;
20727;SDS011;10525;50.154;8.198;2023-02-22T05:46:56;47.27;;;14.20;;
20727;SDS011;10525;50.154;8.198;2023-02-22T05:49:24;49.50;;;14.60;;
20727;SDS011;10525;50.154;8.198;2023-02-22T05:51:51;48.80;;;14.67;;
20727;SDS011;10525;50.154;8.198;2023-02-22T05:54:19;40.37;;;14.03;;
20727;SDS011;10525;50.154;8.198;2023-02-22T05:56:46;40.77;;;14.07;;
20727;SDS011;10525;50.154;8.198;2023-02-22T05:59:13;39.83;;;13.03;;
20727;SDS011;10525;50.154;8.198;2023-02-22T06:01:40;38.40;;;12.77;;
20727;SDS011;10525;50.154;8.198;2023-02-22T06:04:06;41.13;;;13.30;;
20727;SDS011;10525;50.154;8.198;2023-02-22T06:06:35;35.17;;;12.93;;
20727;SDS011;10525;50.154;8.198;2023-02-22T06:09:01;35.67;;;12.03;;
20727;SDS011;10525;50.154;8.198;2023-02-22T06:11:28;33.27;;;11.17;;
20727;SDS011;10525;50.154;8.198;2023-02-22T06:13:55;39.20;;;12.93;;
20727;SDS011;10525;50.154;8.198;2023-02-22T06:16:21;49.67;;;12.87;;
20727;SDS011;10525;50.154;8.198;2023-02-22T06:18:48;37.17;;;12.97;;
20727;SDS011;10525;50.154;8.198;2023-02-22T06:21:15;33.93;;;12.67;;
20727;SDS011;10525;50.154;8.198;2023-02-22T06:23:44;42.87;;;12.43;;
20727;SDS011;10525;50.154;8.198;2023-02-22T06:26:10;38.27;;;12.80;;
20727;SDS011;10525;50.154;8.198;2023-02-22T06:28:37;28.53;;;11.23;;
20727;SDS011;10525;50.154;8.198;2023-02-22T06:31:04;34.60;;;12.17;;
20727;SDS011;10525;50.154;8.198;2023-02-22T06:33:30;31.37;;;11.03;;
20727;SDS011;10525;50.154;8.198;2023-02-22T06:35:57;28.60;;;9.37;;
20727;SDS011;10525;50.154;8.198;2023-02-22T06:38:24;32.13;;;10.77;;
20727;SDS011;10525;50.154;8.198;2023-02-22T06:40:53;30.20;;;11.33;;
20727;SDS011;10525;50.154;8.198;2023-02-22T06:43:20;28.07;;;9.87;;
20727;SDS011;10525;50.154;8.198;2023-02-22T06:45:48;35.40;;;10.77;;
20727;SDS011;10525;50.154;8.198;2023-02-22T06:48:15;33.77;;;10.87;;
20727;SDS011;10525;50.154;8.198;2023-02-22T06:50:41;31.33;;;11.17;;
20727;SDS011;10525;50.154;8.198;2023-02-22T06:53:08;35.63;;;10.73;;
20727;SDS011;10525;50.154;8.198;2023-02-22T06:55:35;35.53;;;10.63;;
20727;SDS011;10525;50.154;8.198;2023-02-22T06:58:03;29.33;;;10.30;;
20727;SDS011;10525;50.154;8.198;2023-02-22T07:00:30;27.93;;;10.37;;
20727;SDS011;10525;50.154;8.198;2023-02-22T07:02:57;45.30;;;12.13;;
20727;SDS011;10525;50.154;8.198;2023-02-22T07:05:25;26.40;;;11.30;;
20727;SDS011;10525;50.154;8.198;2023-02-22T07:07:53;47.43;;;11.17;;
20727;SDS011;10525;50.154;8.198;2023-02-22T07:10:22;36.10;;;11.97;;
20727;SDS011;10525;50.154;8.198;2023-02-22T07:12:50;33.80;;;11.63;;
20727;SDS011;10525;50.154;8.198;2023-02-22T07:15:19;45.30;;;12.63;;
20727;SDS011;10525;50.154;8.198;2023-02-22T07:17:47;38.87;;;12.53;;
20727;SDS011;10525;50.154;8.198;2023-02-22T07:20:14;40.70;;;12.67;;
20727;SDS011;10525;50.154;8.198;2023-02-22T07:22:41;41.87;;;13.10;;
20727;SDS011;10525;50.154;8.198;2023-02-22T07:25:08;34.97;;;11.80;;
20727;SDS011;10525;50.154;8.198;2023-02-22T07:27:36;31.70;;;12.37;;
20727;SDS011;10525;50.154;8.198;2023-02-22T07:30:03;35.27;;;12.10;;
20727;SDS011;10525;50.154;8.198;2023-02-22T07:32:33;41.23;;;13.07;;
20727;SDS011;10525;50.154;8.198;2023-02-22T07:34:59;32.85;;;12.90;;
20727;SDS011;10525;50.154;8.198;2023-02-22T07:37:27;38.05;;;12.55;;
20727;SDS011;10525;50.154;8.198;2023-02-22T07:39:54;31.48;;;11.60;;
20727;SDS011;10525;50.154;8.198;2023-02-22T07:42:20;31.73;;;11.50;;
20727;SDS011;10525;50.154;8.198;2023-02-22T07:44:47;31.15;;;11.15;;
20727;SDS011;10525;50.154;8.198;2023-02-22T07:47:14;51.25;;;14.07;;
20727;SDS011;10525;50.154;8.198;2023-02-22T07:49:42;44.67;;;16.13;;
20727;SDS011;10525;50.154;8.198;2023-02-22T07:52:09;36.30;;;15.35;;
20727;SDS011;10525;50.154;8.198;2023-02-22T07:54:36;40.95;;;15.10;;
20727;SDS011;10525;50.154;8.198;2023-02-22T07:57:05;37.30;;;15.35;;
20727;SDS011;10525;50.154;8.198;2023-02-22T07:59:31;44.03;;;16.15;;
20727;SDS011;10525;50.154;8.198;2023-02-22T08:01:58;32.42;;;15.43;;
20727;SDS011;10525;50.154;8.198;2023-02-22T08:04:25;41.40;;;16.50;;
20727;SDS011;10525;50.154;8.198;2023-02-22T08:06:53;38.85;;;14.95;;
20727;SDS011;10525;50.154;8.198;2023-02-22T08:09:20;35.85;;;13.93;;
20727;SDS011;10525;50.154;8.198;2023-02-22T08:11:47;32.95;;;13.05;;
20727;SDS011;10525;50.154;8.198;2023-02-22T08:14:14;40.92;;;13.50;;
20727;SDS011;10525;50.154;8.198;2023-02-22T08:16:41;35.20;;;14.52;;
20727;SDS011;10525;50.154;8.198;2023-02-22T08:19:07;34.13;;;13.88;;
20727;SDS011;10525;50.154;8.198;2023-02-22T08:21:34;30.20;;;14.85;;
20727;SDS011;10525;50.154;8.198;2023-02-22T08:24:02;78.63;;;15.88;;
20727;SDS011;10525;50.154;8.198;2023-02-22T08:26:29;55.38;;;15.63;;
20727;SDS011;10525;50.154;8.198;2023-02-22T08:28:56;38.80;;;14.48;;
20727;SDS011;10525;50.154;8.198;2023-02-22T08:31:23;38.65;;;14.77;;
20727;SDS011;10525;50.154;8.198;2023-02-22T08:33:49;28.40;;;13.10;;
20727;SDS011;10525;50.154;8.198;2023-02-22T08:36:16;222.75;;;29.38;;
20727;SDS011;10525;50.154;8.198;2023-02-22T08:38:43;57.42;;;15.75;;
20727;SDS011;10525;50.154;8.198;2023-02-22T08:41:11;56.20;;;15.98;;
20727;SDS011;10525;50.154;8.198;2023-02-22T08:43:37;39.15;;;14.93;;
20727;SDS011;10525;50.154;8.198;2023-02-22T08:46:04;46.25;;;15.02;;
20727;SDS011;10525;50.154;8.198;2023-02-22T08:48:31;37.08;;;14.05;;
20727;SDS011;10525;50.154;8.198;2023-02-22T08:50:57;33.00;;;13.75;;
20727;SDS011;10525;50.154;8.198;2023-02-22T08:53:24;49.20;;;15.48;;
20727;SDS011;10525;50.154;8.198;2023-02-22T08:55:51;34.35;;;14.45;;
20727;SDS011;10525;50.154;8.198;2023-02-22T08:58:19;39.40;;;14.73;;
20727;SDS011;10525;50.154;8.198;2023-02-22T09:00:46;26.77;;;13.65;;
20727;SDS011;10525;50.154;8.198;2023-02-22T09:03:13;32.42;;;13.32;;
20727;SDS011;10525;50.154;8.198;2023-02-22T09:05:40;49.13;;;15.85;;
20727;SDS011;10525;50.154;8.198;2023-02-22T09:08:07;57.38;;;14.93;;
20727;SDS011;10525;50.154;8.198;2023-02-22T09:10:34;25.67;;;13.48;;
20727;SDS011;10525;50.154;8.198;2023-02-22T09:13:01;27.00;;;13.68;;
20727;SDS011;10525;50.154;8.198;2023-02-22T09:15:30;25.52;;;12.48;;
20727;SDS011;10525;50.154;8.198;2023-02-22T09:17:59;31.73;;;13.88;;
20727;SDS011;10525;50.154;8.198;2023-02-22T09:20:27;29.20;;;12.82;;
20727;SDS011;10525;50.154;8.198;2023-02-22T09:22:54;31.75;;;12.63;;
20727;SDS011;10525;50.154;8.198;2023-02-22T09:25:21;31.63;;;13.05;;
20727;SDS011;10525;50.154;8.198;2023-02-22T09:27:48;26.23;;;12.88;;
20727;SDS011;10525;50.154;8.198;2023-02-22T09:30:16;24.70;;;12.10;;
20727;SDS011;10525;50.154;8.198;2023-02-22T09:32:48;31.90;;;11.65;;
20727;SDS011;10525;50.154;8.198;2023-02-22T09:35:16;31.90;;;11.73;;
20727;SDS011;10525;50.154;8.198;2023-02-22T09:37:43;21.95;;;11.13;;
20727;SDS011;10525;50.154;8.198;2023-02-22T09:40:13;19.35;;;10.95;;
20727;SDS011;10525;50.154;8.198;2023-02-22T09:42:50;30.58;;;11.65;;
20727;SDS011;10525;50.154;8.198;2023-02-22T09:45:26;24.60;;;11.70;;
20727;SDS011;10525;50.154;8.198;2023-02-22T09:48:00;27.23;;;10.98;;
20727;SDS011;10525;50.154;8.198;2023-02-22T09:50:32;24.90;;;12.20;;
20727;SDS011;10525;50.154;8.198;2023-02-22T09:53:03;25.20;;;10.48;;
20727;SDS011;10525;50.154;8.198;2023-02-22T09:55:33;22.98;;;11.55;;
20727;SDS011;10525;50.154;8.198;2023-02-22T09:58:06;23.02;;;11.13;;
20727;SDS011;10525;50.154;8.198;2023-02-22T10:00:39;23.95;;;12.25;;
20727;SDS011;10525;50.154;8.198;2023-02-22T10:03:14;26.17;;;12.52;;
20727;SDS011;10525;50.154;8.198;2023-02-22T10:05:48;19.52;;;11.75;;
20727;SDS011;10525;50.154;8.198;2023-02-22T10:08:20;26.98;;;13.55;;
20727;SDS011;10525;50.154;8.198;2023-02-22T10:10:54;28.85;;;13.25;;
20727;SDS011;10525;50.154;8.198;2023-02-22T10:13:31;32.88;;;13.90;;
20727;SDS011;10525;50.154;8.198;2023-02-22T10:16:07;22.25;;;12.18;;
20727;SDS011;10525;50.154;8.198;2023-02-22T10:18:44;25.40;;;12.57;;
20727;SDS011;10525;50.154;8.198;2023-02-22T10:21:38;25.70;;;11.93;;
20727;SDS011;10525;50.154;8.198;2023-02-22T10:24:17;22.27;;;12.23;;
20727;SDS011;10525;50.154;8.198;2023-02-22T10:26:53;23.33;;;12.10;;
20727;SDS011;10525;50.154;8.198;2023-02-22T10:29:23;23.20;;;12.32;;
20727;SDS011;10525;50.154;8.198;2023-02-22T10:31:57;22.85;;;12.88;;
20727;SDS011;10525;50.154;8.198;2023-02-22T10:34:29;25.75;;;12.55;;
20727;SDS011;10525;50.154;8.198;2023-02-22T10:36:59;35.10;;;13.73;;
20727;SDS011;10525;50.154;8.198;2023-02-22T10:39:41;25.75;;;12.95;;
20727;SDS011;10525;50.154;8.198;2023-02-22T10:42:10;23.55;;;13.13;;
20727;SDS011;10525;50.154;8.198;2023-02-22T10:44:37;30.83;;;13.95;;
20727;SDS011;10525;50.154;8.198;2023-02-22T10:47:05;33.05;;;12.68;;
20727;SDS011;10525;50.154;8.198;2023-02-22T10:49:39;26.23;;;13.18;;
20727;SDS011;10525;50.154;8.198;2023-02-22T10:52:11;27.27;;;12.05;;
20727;SDS011;10525;50.154;8.198;2023-02-22T10:54:40;27.00;;;12.85;;
20727;SDS011;10525;50.154;8.198;2023-02-22T10:57:10;29.85;;;13.50;;
20727;SDS011;10525;50.154;8.198;2023-02-22T10:59:38;29.00;;;14.30;;
20727;SDS011;10525;50.154;8.198;2023-02-22T11:02:08;30.33;;;14.57;;
20727;SDS011;10525;50.154;8.198;2023-02-22T11:04:46;28.10;;;13.80;;
20727;SDS011;10525;50.154;8.198;2023-02-22T11:07:17;30.92;;;13.98;;
20727;SDS011;10525;50.154;8.198;2023-02-22T11:09:48;25.15;;;13.25;;
20727;SDS011;10525;50.154;8.198;2023-02-22T11:12:18;24.80;;;12.68;;
20727;SDS011;10525;50.154;8.198;2023-02-22T11:14:50;24.88;;;12.18;;
20727;SDS011;10525;50.154;8.198;2023-02-22T11:17:18;23.35;;;12.90;;
20727;SDS011;10525;50.154;8.198;2023-02-22T11:19:53;22.88;;;13.10;;
20727;SDS011;10525;50.154;8.198;2023-02-22T11:22:20;21.55;;;11.48;;
20727;SDS011;10525;50.154;8.198;2023-02-22T11:24:50;20.55;;;11.55;;
20727;SDS011;10525;50.154;8.198;2023-02-22T11:27:30;31.20;;;13.27;;
20727;SDS011;10525;50.154;8.198;2023-02-22T11:30:17;28.13;;;12.10;;
20727;SDS011;10525;50.154;8.198;2023-02-22T11:32:52;26.30;;;12.85;;
20727;SDS011;10525;50.154;8.198;2023-02-22T11:35:31;28.67;;;12.85;;
20727;SDS011;10525;50.154;8.198;2023-02-22T11:38:08;23.38;;;12.25;;
20727;SDS011;10525;50.154;8.198;2023-02-22T11:40:36;21.88;;;11.63;;
20727;SDS011;10525;50.154;8.198;2023-02-22T11:43:07;24.52;;;12.73;;
20727;SDS011;10525;50.154;8.198;2023-02-22T11:45:36;27.17;;;13.00;;
20727;SDS011;10525;50.154;8.198;2023-02-22T11:48:04;21.10;;;11.27;;
20727;SDS011;10525;50.154;8.198;2023-02-22T11:50:36;29.88;;;13.52;;
20727;SDS011;10525;50.154;8.198;2023-02-22T11:53:18;21.15;;;11.48;;
20727;SDS011;10525;50.154;8.198;2023-02-22T11:55:54;31.33;;;13.48;;
20727;SDS011;10525;50.154;8.198;2023-02-22T11:58:35;29.13;;;12.60;;
20727;SDS011;10525;50.154;8.198;2023-02-22T12:01:10;27.23;;;12.65;;
20727;SDS011;10525;50.154;8.198;2023-02-22T12:03:51;26.92;;;11.27;;
20727;SDS011;10525;50.154;8.198;2023-02-22T12:06:42;30.88;;;13.05;;
20727;SDS011;10525;50.154;8.198;2023-02-22T12:09:17;28.67;;;12.65;;
20727;SDS011;10525;50.154;8.198;2023-02-22T12:11:50;26.67;;;12.07;;
20727;SDS011;10525;50.154;8.198;2023-02-22T12:14:28;32.08;;;12.07;;
20727;SDS011;10525;50.154;8.198;2023-02-22T12:19:51;17.27;;;9.45;;
20727;SDS011;10525;50.154;8.198;2023-02-22T12:22:25;25.27;;;11.50;;
20727;SDS011;10525;50.154;8.198;2023-02-22T12:24:56;26.55;;;9.68;;
20727;SDS011;10525;50.154;8.198;2023-02-22T12:27:29;24.45;;;11.23;;
20727;SDS011;10525;50.154;8.198;2023-02-22T12:30:00;21.77;;;11.55;;
20727;SDS011;10525;50.154;8.198;2023-02-22T12:32:33;26.73;;;10.55;;
20727;SDS011;10525;50.154;8.198;2023-02-22T12:35:08;24.27;;;10.55;;
20727;SDS011;10525;50.154;8.198;2023-02-22T12:37:42;23.33;;;10.80;;
20727;SDS011;10525;50.154;8.198;2023-02-22T12:40:17;22.10;;;11.38;;
20727;SDS011;10525;50.154;8.198;2023-02-22T12:42:50;29.13;;;10.93;;
20727;SDS011;10525;50.154;8.198;2023-02-22T12:45:24;25.15;;;11.88;;
20727;SDS011;10525;50.154;8.198;2023-02-22T12:47:58;25.50;;;11.60;;
20727;SDS011;10525;50.154;8.198;2023-02-22T12:50:32;19.25;;;10.27;;
20727;SDS011;10525;50.154;8.198;2023-02-22T12:53:06;18.70;;;9.40;;
20727;SDS011;10525;50.154;8.198;2023-02-22T12:55:40;21.42;;;9.48;;
20727;SDS011;10525;50.154;8.198;2023-02-22T12:58:17;19.17;;;9.48;;
20727;SDS011;10525;50.154;8.198;2023-02-22T13:00:50;19.25;;;9.65;;
20727;SDS011;10525;50.154;8.198;2023-02-22T13:03:32;19.35;;;10.30;;
20727;SDS011;10525;50.154;8.198;2023-02-22T13:06:08;19.88;;;9.90;;
20727;SDS011;10525;50.154;8.198;2023-02-22T13:08:50;21.38;;;10.88;;
20727;SDS011;10525;50.154;8.198;2023-02-22T13:11:29;18.27;;;10.30;;
20727;SDS011;10525;50.154;8.198;2023-02-22T13:14:06;20.05;;;10.35;;
20727;SDS011;10525;50.154;8.198;2023-02-22T13:16:43;21.00;;;10.15;;
20727;SDS011;10525;50.154;8.198;2023-02-22T13:19:22;17.70;;;10.35;;
20727;SDS011;10525;50.154;8.198;2023-02-22T13:22:01;22.00;;;10.38;;
20727;SDS011;10525;50.154;8.198;2023-02-22T13:24:38;15.43;;;9.55;;
20727;SDS011;10525;50.154;8.198;2023-02-22T13:27:11;19.38;;;9.93;;
20727;SDS011;10525;50.154;8.198;2023-02-22T13:29:43;19.58;;;10.75;;
20727;SDS011;10525;50.154;8.198;2023-02-22T13:32:17;17.92;;;11.13;;
20727;SDS011;10525;50.154;8.198;2023-02-22T13:34:58;20.00;;;10.57;;
20727;SDS011;10525;50.154;8.198;2023-02-22T13:37:55;25.05;;;11.60;;
20727;SDS011;10525;50.154;8.198;2023-02-22T13:40:51;25.45;;;11.05;;
20727;SDS011;10525;50.154;8.198;2023-02-22T13:43:33;22.98;;;12.15;;
20727;SDS011;10525;50.154;8.198;2023-02-22T13:46:27;24.67;;;11.05;;
20727;SDS011;10525;50.154;8.198;2023-02-22T13:49:14;22.42;;;11.40;;
20727;SDS011;10525;50.154;8.198;2023-02-22T13:51:50;26.55;;;12.45;;
20727;SDS011;10525;50.154;8.198;2023-02-22T13:54:21;25.23;;;12.05;;
20727;SDS011;10525;50.154;8.198;2023-02-22T13:56:54;23.55;;;11.40;;
20727;SDS011;10525;50.154;8.198;2023-02-22T13:59:26;24.92;;;12.05;;
20727;SDS011;10525;50.154;8.198;2023-02-22T14:01:55;23.77;;;11.70;;
20727;SDS011;10525;50.154;8.198;2023-02-22T14:04:33;23.88;;;11.00;;
20727;SDS011;10525;50.154;8.198;2023-02-22T14:10:34;18.35;;;10.20;;
20727;SDS011;10525;50.154;8.198;2023-02-22T14:13:12;26.75;;;12.13;;
20727;SDS011;10525;50.154;8.198;2023-02-22T14:18:40;28.38;;;11.82;;
20727;SDS011;10525;50.154;8.198;2023-02-22T14:21:08;29.73;;;12.25;;
20727;SDS011;10525;50.154;8.198;2023-02-22T14:23:37;23.67;;;11.77;;
20727;SDS011;10525;50.154;8.198;2023-02-22T14:26:09;24.33;;;12.50;;
20727;SDS011;10525;50.154;8.198;2023-02-22T14:28:42;26.58;;;12.30;;
20727;SDS011;10525;50.154;8.198;2023-02-22T14:31:15;30.25;;;13.00;;
20727;SDS011;10525;50.154;8.198;2023-02-22T14:33:57;27.15;;;12.63;;
20727;SDS011;10525;50.154;8.198;2023-02-22T14:36:28;29.05;;;13.65;;
20727;SDS011;10525;50.154;8.198;2023-02-22T14:41:50;26.45;;;12.07;;
20727;SDS011;10525;50.154;8.198;2023-02-22T14:44:23;28.42;;;12.43;;
20727;SDS011;10525;50.154;8.198;2023-02-22T14:46:53;26.33;;;12.55;;
20727;SDS011;10525;50.154;8.198;2023-02-22T14:49:26;26.17;;;12.30;;
20727;SDS011;10525;50.154;8.198;2023-02-22T14:51:58;24.90;;;13.02;;
20727;SDS011;10525;50.154;8.198;2023-02-22T14:54:30;25.63;;;12.30;;